Jacksonville, FL (32257)

11:43 PM EST on February 09, 2016 (GMT -0500)
Pickwick Park | | Change Station
CLOSE
Current Station
Personal Weather Station
Location: Jacksonville, FL
Elevation: 30 ft
Nearby Weather Stations
Active Advisory: Freeze Warning, Freeze Watch Active Notice: Local Storm Report

Elev 30 ft 30.21 °N, 81.62 °W | Updated 38 seconds ago

Clear
Clear
44.4 °F
Feels Like 42 °F
N
5.0
Wind Variable Wind from West
Gusts 7.0 mph

Today
High -- | Low -- °F
--% Chance of Precip.
Yesterday
High -- | Low -- °F
Precip. -- in
Pressure 30.05 in
Visibility 10.0 miles
Clouds Clear
Windchill 42 °F
Dew Point 8 °F
Humidity 22%
Rainfall 0.00 in
Snow Depth Not available.
7:11 AM 6:09 PM
Waxing Crescent, 3% visible
METAR KNIP 100353Z 28008KT 10SM CLR 08/M07 A3006 RMK AO2 SLP176 T00831072
Pressure 30.05 in
Visibility 10.0 miles
Clouds Clear
Windchill 42 °F
Dew Point 8 °F
Humidity 22%
Rainfall 0.00 in
Snow Depth Not available.
7:11 AM 6:09 PM
Waxing Crescent, 3% visible
METAR KNIP 100353Z 28008KT 10SM CLR 08/M07 A3006 RMK AO2 SLP176 T00831072

10-Day Weather Forecast

Almanac

Astronomy

Feb. 09, 2016 Rise Set
Actual Time
Civil Twilight
Nautical Twilight
Astronomical Twilight
Moon
Length of Visible Light
Length of Day
Tomorrow will be .
, % of the Moon is Illuminated

Today's Extremes

State Highs State Lows

Community

WunderPhotos

Upload Photos

1,891,810 photos uploaded!

WunderBlog® & News

Nearby

Air Quality

  Air Quality AQ Index Pollutant
Not available.

Snow Depth

Station Depth Elevation

Earthquake Activity

City Distance Mag. Time & Date
Minimum magnitude displayed is 2.5.

Coastal Water Temperatures

Place Temperature

Stations

Nearby Weather Stations

Station Location Temp. Windchill Dew Point Humidity Wind Precip. Elev Updated Type
                   

Watches & Warnings

Freeze Warning, Freeze Watch
Issued: 10:00 PM EST Feb. 9, 2016 – National Weather Service

... Freeze warning remains in effect from 3 am to 9 am EST
Wednesday...
... Freeze watch remains in effect from late Wednesday night
through Thursday morning...

* temperature... lows early Wednesday and Thursday morning in the
upper 20s to near 30 inland and lower 30s at the coast with
wind chills in the lower 20s on Wednesday morning.

* Impacts... appropriate action should also be taken to ensure
tender vegetation and outdoor pets have adequate protection
from the cold temperatures.

Precautionary/preparedness actions...

A freeze warning means sub-freezing temperatures are imminent or
expected for at least 2 hours. Appropriate action should be
taken to ensure tender vegetation and outdoor pets have adequate
protection from the cold temperatures. Young children... the
elderly and the homeless are especially vulnerable to the cold.
Take measures to protect them.